createdAt,value
2022-11-27T00:01:50.224Z,91.85
2022-11-27T00:04:20.180Z,92.33
2022-11-27T00:06:48.673Z,92.54
2022-11-27T00:09:18.346Z,92.86
2022-11-27T00:11:47.048Z,92.93
2022-11-27T00:14:19.842Z,92.97
2022-11-27T00:16:48.337Z,92.95
2022-11-27T00:19:16.754Z,93.25
2022-11-27T00:21:46.572Z,93.22
2022-11-27T00:24:14.925Z,93.39
2022-11-27T00:26:43.357Z,93.81
2022-11-27T00:29:11.934Z,93.99
2022-11-27T00:31:40.468Z,94.29
2022-11-27T00:34:11.082Z,93.58
2022-11-27T00:36:43.967Z,93.19
2022-11-27T00:39:16.465Z,93.20
2022-11-27T00:41:44.940Z,93.52
2022-11-27T00:44:14.370Z,93.55
2022-11-27T00:46:42.851Z,94.16
2022-11-27T00:49:15.534Z,94.13
2022-11-27T00:51:44.398Z,94.33
2022-11-27T00:54:12.832Z,94.16
2022-11-27T00:56:42.680Z,94.33
2022-11-27T00:59:12.989Z,94.55
2022-11-27T01:01:44.205Z,94.91
2022-11-27T01:04:15.531Z,95.02
2022-11-27T01:06:45.189Z,95.09
2022-11-27T01:09:14.847Z,94.95
2022-11-27T01:11:45.225Z,95.34
2022-11-27T01:14:16.725Z,96.20
2022-11-27T01:16:45.367Z,97.07
2022-11-27T01:19:15.199Z,97.48
2022-11-27T01:21:44.194Z,97.98
2022-11-27T01:24:15.350Z,98.76
2022-11-27T01:26:46.206Z,98.94
2022-11-27T01:29:14.724Z,99.17
2022-11-27T01:31:43.340Z,99.46
2022-11-27T01:34:16.892Z,99.40
2022-11-27T01:36:45.584Z,99.82
2022-11-27T01:39:18.533Z,99.87
2022-11-27T01:41:49.817Z,99.63
2022-11-27T01:44:57.520Z,99.61
2022-11-27T01:47:35.791Z,99.82
2022-11-27T01:50:16.808Z,100.00
2022-11-27T01:52:50.533Z,100.00
2022-11-27T01:55:26.682Z,100.00
2022-11-27T01:58:01.576Z,100.00
2022-11-27T02:00:31.065Z,100.00
2022-11-27T02:02:59.634Z,100.00
2022-11-27T02:05:29.983Z,100.00
2022-11-27T02:08:01.046Z,100.00
2022-11-27T02:10:49.749Z,100.00
2022-11-27T02:13:31.825Z,100.00
2022-11-27T02:16:17.557Z,100.00
2022-11-27T02:18:56.167Z,100.00
2022-11-27T02:21:34.305Z,100.00
2022-11-27T02:24:39.645Z,100.00
2022-11-27T02:27:48.643Z,100.00
2022-11-27T02:30:18.894Z,100.00
2022-11-27T02:32:53.052Z,100.00
2022-11-27T02:35:29.987Z,100.00
2022-11-27T02:38:01.528Z,100.00
2022-11-27T02:40:36.466Z,100.00
2022-11-27T02:43:11.606Z,100.00
2022-11-27T02:45:45.157Z,100.00
2022-11-27T02:48:16.804Z,100.00
2022-11-27T02:50:47.264Z,100.00
2022-11-27T02:53:21.411Z,100.00
2022-11-27T02:55:51.892Z,100.00
2022-11-27T02:58:24.977Z,100.00
2022-11-27T03:00:56.930Z,100.00
2022-11-27T03:03:33.923Z,100.00
2022-11-27T03:06:08.332Z,100.00
2022-11-27T03:08:43.711Z,100.00
2022-11-27T03:11:14.955Z,100.00
2022-11-27T03:13:47.835Z,100.00
2022-11-27T03:16:26.260Z,100.00
2022-11-27T03:19:02.687Z,100.00
2022-11-27T03:21:36.520Z,100.00
2022-11-27T03:24:06.432Z,100.00
2022-11-27T03:26:35.332Z,100.00
2022-11-27T03:29:07.875Z,100.00
2022-11-27T03:31:38.337Z,100.00
2022-11-27T03:34:07.214Z,100.00
2022-11-27T03:36:35.589Z,100.00
2022-11-27T03:39:05.287Z,100.00
2022-11-27T03:41:45.013Z,100.00
2022-11-27T03:44:27.668Z,100.00
2022-11-27T03:47:08.383Z,100.00
2022-11-27T03:49:48.848Z,100.00
2022-11-27T03:52:26.294Z,100.00
2022-11-27T03:55:04.638Z,100.00
2022-11-27T03:57:39.031Z,100.00
2022-11-27T04:00:10.438Z,100.00
2022-11-27T04:02:48.344Z,100.00
2022-11-27T04:05:17.322Z,100.00
2022-11-27T04:07:45.714Z,100.00
2022-11-27T04:10:14.842Z,100.00
2022-11-27T04:12:43.579Z,100.00
2022-11-27T04:15:13.583Z,100.00
2022-11-27T04:17:43.433Z,100.00
2022-11-27T04:20:14.299Z,100.00
2022-11-27T04:22:42.747Z,100.00
2022-11-27T04:25:11.706Z,100.00
2022-11-27T04:27:40.178Z,100.00
2022-11-27T04:30:10.218Z,100.00
2022-11-27T04:32:38.617Z,100.00
2022-11-27T04:35:09.711Z,100.00
2022-11-27T04:37:38.222Z,100.00
2022-11-27T04:40:08.666Z,100.00
2022-11-27T04:42:37.035Z,100.00
2022-11-27T04:45:06.538Z,100.00
2022-11-27T04:47:34.935Z,100.00
2022-11-27T04:50:03.422Z,100.00
2022-11-27T04:52:33.440Z,100.00
2022-11-27T04:55:01.931Z,100.00
2022-11-27T04:57:30.355Z,100.00
2022-11-27T04:59:58.696Z,100.00
2022-11-27T05:02:27.471Z,100.00
2022-11-27T05:04:55.875Z,100.00
2022-11-27T05:07:24.281Z,100.00
2022-11-27T05:09:53.997Z,100.00
2022-11-27T05:12:22.482Z,100.00
2022-11-27T05:14:50.893Z,100.00
2022-11-27T05:17:19.281Z,100.00
2022-11-27T05:19:47.759Z,100.00
2022-11-27T05:22:16.253Z,100.00
2022-11-27T05:24:44.673Z,100.00
2022-11-27T05:27:14.996Z,100.00
2022-11-27T05:29:43.765Z,100.00
2022-11-27T05:32:12.246Z,100.00
2022-11-27T05:34:40.759Z,100.00
2022-11-27T05:37:09.372Z,100.00
2022-11-27T05:39:37.767Z,100.00
2022-11-27T05:42:06.347Z,100.00
2022-11-27T05:44:36.103Z,100.00
2022-11-27T05:47:04.644Z,100.00
2022-11-27T05:49:33.135Z,100.00
2022-11-27T05:52:01.628Z,100.00
2022-11-27T05:54:30.070Z,100.00
2022-11-27T05:56:58.476Z,100.00
2022-11-27T05:59:26.892Z,100.00
2022-11-27T06:01:56.707Z,100.00
2022-11-27T06:04:25.064Z,100.00
2022-11-27T06:06:53.481Z,100.00
2022-11-27T06:09:21.920Z,100.00
2022-11-27T06:11:50.316Z,100.00
2022-11-27T06:14:18.736Z,100.00
2022-11-27T06:16:47.176Z,100.00
2022-11-27T06:19:16.966Z,100.00
2022-11-27T06:21:46.653Z,100.00
2022-11-27T06:24:22.657Z,100.00
2022-11-27T06:26:52.400Z,100.00
2022-11-27T06:29:20.826Z,100.00
2022-11-27T06:31:49.250Z,100.00
2022-11-27T06:34:19.062Z,100.00
2022-11-27T06:36:47.656Z,100.00
2022-11-27T06:39:15.987Z,100.00
2022-11-27T06:41:44.511Z,100.00
2022-11-27T06:44:12.907Z,100.00
2022-11-27T06:46:41.628Z,100.00
2022-11-27T06:49:11.423Z,100.00
2022-11-27T06:51:41.157Z,100.00
2022-11-27T06:54:09.537Z,100.00
2022-11-27T06:56:38.027Z,100.00
2022-11-27T06:59:06.409Z,100.00
2022-11-27T07:01:35.389Z,100.00
2022-11-27T07:04:03.931Z,100.00
2022-11-27T07:06:32.399Z,100.00
2022-11-27T07:09:04.042Z,100.00
2022-11-27T07:11:33.314Z,100.00
2022-11-27T07:14:03.996Z,100.00
2022-11-27T07:16:35.766Z,100.00
2022-11-27T07:19:07.594Z,100.00
2022-11-27T07:21:38.323Z,100.00
2022-11-27T07:24:09.306Z,100.00
2022-11-27T07:26:37.716Z,100.00
2022-11-27T07:29:06.114Z,100.00
2022-11-27T07:31:34.677Z,100.00
2022-11-27T07:34:05.741Z,100.00
2022-11-27T07:36:35.454Z,100.00
2022-11-27T07:39:03.885Z,100.00
2022-11-27T07:41:34.385Z,100.00
2022-11-27T07:44:02.843Z,100.00
2022-11-27T07:46:31.436Z,100.00
2022-11-27T07:49:01.312Z,100.00
2022-11-27T07:51:30.110Z,100.00
2022-11-27T07:53:58.657Z,100.00
2022-11-27T07:56:27.468Z,100.00
2022-11-27T07:58:58.219Z,100.00
2022-11-27T08:01:26.761Z,100.00
2022-11-27T08:03:55.184Z,100.00
2022-11-27T08:06:26.846Z,100.00
2022-11-27T08:08:56.888Z,100.00
2022-11-27T08:11:27.606Z,100.00
2022-11-27T08:14:01.255Z,100.00
2022-11-27T08:16:30.911Z,100.00
2022-11-27T08:18:59.967Z,100.00
2022-11-27T08:21:30.489Z,100.00
2022-11-27T08:23:59.271Z,100.00
2022-11-27T08:26:28.743Z,100.00
2022-11-27T08:28:59.289Z,100.00
2022-11-27T08:31:27.930Z,100.00
2022-11-27T08:33:57.147Z,100.00
2022-11-27T08:36:27.056Z,100.00
2022-11-27T08:38:56.375Z,100.00
2022-11-27T08:41:24.874Z,100.00
2022-11-27T08:43:53.170Z,100.00
2022-11-27T08:46:22.996Z,100.00
2022-11-27T08:48:51.487Z,100.00
2022-11-27T08:51:19.985Z,100.00
2022-11-27T08:53:48.306Z,100.00
2022-11-27T08:56:21.124Z,100.00
2022-11-27T08:58:49.894Z,100.00
2022-11-27T09:01:21.215Z,100.00
2022-11-27T09:03:52.832Z,100.00
2022-11-27T09:06:23.797Z,100.00
2022-11-27T09:08:52.686Z,100.00
2022-11-27T09:11:22.252Z,100.00
2022-11-27T09:13:51.154Z,100.00
2022-11-27T09:16:22.756Z,100.00
2022-11-27T09:18:54.206Z,100.00
2022-11-27T09:21:27.194Z,100.00
2022-11-27T09:23:56.578Z,100.00
2022-11-27T09:26:25.831Z,100.00
2022-11-27T09:28:55.078Z,100.00
2022-11-27T09:31:24.583Z,100.00
2022-11-27T09:33:54.568Z,99.93
2022-11-27T09:36:24.992Z,98.44
2022-11-27T09:38:54.248Z,98.97
2022-11-27T09:41:40.584Z,98.48
2022-11-27T09:44:26.481Z,98.21
2022-11-27T09:46:56.762Z,97.56
2022-11-27T09:49:32.444Z,95.87
2022-11-27T09:52:06.782Z,95.73
2022-11-27T09:54:40.333Z,95.79
2022-11-27T09:57:12.692Z,95.15
2022-11-27T09:59:49.053Z,94.64
2022-11-27T10:02:20.046Z,93.69
2022-11-27T10:05:15.471Z,93.24
2022-11-27T10:07:54.024Z,92.20
2022-11-27T10:10:40.299Z,92.71
2022-11-27T10:13:22.198Z,93.25
2022-11-27T10:15:57.033Z,92.80
2022-11-27T10:18:34.194Z,92.52
2022-11-27T10:21:12.467Z,91.74
2022-11-27T10:23:49.547Z,91.57
2022-11-27T10:26:23.913Z,91.33
2022-11-27T10:29:03.513Z,88.21
2022-11-27T10:31:38.583Z,82.99
2022-11-27T10:34:22.437Z,82.81
2022-11-27T10:36:53.315Z,81.82
2022-11-27T10:39:32.124Z,82.05
2022-11-27T10:42:09.006Z,81.54
2022-11-27T10:44:43.127Z,82.30
2022-11-27T10:47:14.226Z,83.83
2022-11-27T10:49:43.902Z,84.31
2022-11-27T10:52:19.441Z,83.21
2022-11-27T10:54:55.310Z,83.92
2022-11-27T10:57:51.457Z,84.63
2022-11-27T11:00:23.885Z,85.75
2022-11-27T11:03:01.646Z,85.69
2022-11-27T11:06:04.246Z,86.31
2022-11-27T11:08:22.269Z,86.23
2022-11-27T11:10:55.889Z,86.62
2022-11-27T11:13:28.017Z,86.09
2022-11-27T11:16:00.645Z,84.85
2022-11-27T11:18:32.126Z,84.59
2022-11-27T11:21:03.260Z,84.62
2022-11-27T11:23:36.308Z,84.85
2022-11-27T11:26:09.605Z,86.88
2022-11-27T11:28:48.630Z,91.05
2022-11-27T11:31:20.886Z,89.33
2022-11-27T11:33:54.100Z,88.68
2022-11-27T11:36:22.735Z,89.27
2022-11-27T11:38:53.409Z,87.70
2022-11-27T11:41:23.844Z,87.13
2022-11-27T11:43:58.761Z,84.83
2022-11-27T11:46:30.033Z,85.98
2022-11-27T11:49:03.004Z,85.76
2022-11-27T11:52:00.050Z,84.47
2022-11-27T11:54:49.786Z,84.53
2022-11-27T11:57:58.061Z,84.61
2022-11-27T12:00:58.520Z,84.33
2022-11-27T12:03:42.471Z,84.40
2022-11-27T12:06:38.498Z,85.01
2022-11-27T12:09:37.025Z,84.76
2022-11-27T12:12:17.608Z,83.56
2022-11-27T12:14:52.329Z,83.06
2022-11-27T12:17:40.700Z,82.37
2022-11-27T12:20:21.248Z,81.47
2022-11-27T12:23:31.534Z,80.99
2022-11-27T12:26:12.222Z,80.81
2022-11-27T12:29:10.803Z,80.70
2022-11-27T12:32:06.497Z,79.72
2022-11-27T12:34:49.880Z,79.16
2022-11-27T12:37:38.183Z,78.20
2022-11-27T12:40:29.500Z,78.84
2022-11-27T12:43:09.548Z,79.32
2022-11-27T12:45:44.585Z,78.75
2022-11-27T12:48:19.406Z,77.84
2022-11-27T12:50:51.815Z,77.97
2022-11-27T12:53:26.217Z,78.26
2022-11-27T12:56:07.770Z,77.88
2022-11-27T12:58:42.846Z,78.37
2022-11-27T13:01:22.450Z,78.58
2022-11-27T13:04:07.427Z,77.60
2022-11-27T13:06:44.503Z,75.41
2022-11-27T13:09:21.076Z,75.58
2022-11-27T13:11:49.572Z,74.27
2022-11-27T13:14:24.248Z,74.87
2022-11-27T13:16:57.913Z,75.22
2022-11-27T13:19:33.248Z,74.78
2022-11-27T13:22:04.900Z,75.05
2022-11-27T13:24:34.699Z,75.40
2022-11-27T13:27:08.260Z,74.97
2022-11-27T13:29:44.278Z,75.55
2022-11-27T13:32:22.473Z,76.32
2022-11-27T13:34:53.511Z,75.93
2022-11-27T13:37:31.267Z,75.48
2022-11-27T13:40:07.324Z,75.84
2022-11-27T13:42:38.102Z,75.66
2022-11-27T13:45:19.086Z,76.06
2022-11-27T13:47:47.835Z,76.11
2022-11-27T13:50:20.298Z,76.43
2022-11-27T13:53:00.089Z,76.66
2022-11-27T13:55:31.323Z,76.60
2022-11-27T13:58:02.552Z,76.63
2022-11-27T14:00:39.267Z,76.79
2022-11-27T14:03:10.680Z,77.40
2022-11-27T14:05:42.777Z,77.44
2022-11-27T14:08:24.292Z,77.17
2022-11-27T14:11:00.693Z,77.60
2022-11-27T14:13:39.732Z,77.53
2022-11-27T14:16:27.668Z,77.90
2022-11-27T14:18:59.528Z,78.40
2022-11-27T14:21:40.279Z,78.32
2022-11-27T14:24:34.596Z,78.91
2022-11-27T14:27:08.605Z,79.21
2022-11-27T14:29:36.993Z,79.72
2022-11-27T14:32:14.551Z,80.27
2022-11-27T14:34:43.415Z,80.72
2022-11-27T14:37:24.358Z,81.14
2022-11-27T14:39:53.301Z,80.85
2022-11-27T14:42:29.127Z,81.07
2022-11-27T14:45:07.031Z,81.61
2022-11-27T14:47:44.899Z,81.76
2022-11-27T14:50:16.048Z,81.91
2022-11-27T14:52:47.834Z,81.93
2022-11-27T14:55:17.956Z,81.99
2022-11-27T14:57:48.827Z,82.37
2022-11-27T15:00:20.977Z,82.42
2022-11-27T15:02:52.650Z,82.98
2022-11-27T15:05:25.007Z,82.16
2022-11-27T15:07:55.720Z,82.41
2022-11-27T15:10:34.259Z,82.63
2022-11-27T15:13:04.737Z,82.93
2022-11-27T15:15:40.075Z,83.63
2022-11-27T15:18:19.077Z,83.60
2022-11-27T15:20:47.976Z,83.79
2022-11-27T15:23:21.094Z,83.69
2022-11-27T15:25:52.001Z,84.61
2022-11-27T15:28:35.160Z,84.56
2022-11-27T15:31:23.545Z,84.44
2022-11-27T15:34:24.440Z,84.14
2022-11-27T15:37:01.522Z,83.95
2022-11-27T15:39:37.984Z,84.03
2022-11-27T15:42:11.167Z,84.28
2022-11-27T15:44:40.422Z,84.93
2022-11-27T15:47:22.812Z,85.10
2022-11-27T15:49:52.647Z,84.75
2022-11-27T15:52:21.377Z,85.13
2022-11-27T15:54:49.886Z,85.26
2022-11-27T15:57:18.955Z,84.81
2022-11-27T15:59:47.328Z,85.36
2022-11-27T16:02:18.135Z,85.55
2022-11-27T16:04:46.957Z,85.63
2022-11-27T16:07:16.898Z,85.63
2022-11-27T16:09:45.322Z,85.14
2022-11-27T16:12:13.720Z,85.36
2022-11-27T16:14:42.380Z,85.43
2022-11-27T16:17:11.911Z,85.82
2022-11-27T16:19:40.286Z,85.70
2022-11-27T16:22:08.982Z,85.15
2022-11-27T16:24:39.172Z,85.69
2022-11-27T16:27:08.031Z,86.12
2022-11-27T16:29:36.613Z,86.70
2022-11-27T16:32:05.559Z,86.79
2022-11-27T16:34:36.251Z,86.44
2022-11-27T16:37:05.189Z,87.00
2022-11-27T16:39:33.845Z,87.26
2022-11-27T16:42:03.691Z,88.17
2022-11-27T16:44:33.429Z,88.55
2022-11-27T16:47:01.947Z,89.60
2022-11-27T16:49:31.137Z,89.81
2022-11-27T16:51:59.909Z,89.92
2022-11-27T16:54:30.384Z,90.06
2022-11-27T16:56:59.955Z,90.09
2022-11-27T16:59:30.290Z,90.44
2022-11-27T17:01:59.143Z,90.69
2022-11-27T17:04:28.037Z,91.08
2022-11-27T17:06:56.633Z,91.05
2022-11-27T17:09:29.290Z,91.28
2022-11-27T17:11:57.980Z,91.54
2022-11-27T17:14:29.554Z,91.74
2022-11-27T17:16:58.692Z,91.86
2022-11-27T17:19:29.975Z,92.07
2022-11-27T17:21:59.711Z,92.21
2022-11-27T17:24:28.991Z,92.58
2022-11-27T17:26:57.715Z,92.91
2022-11-27T17:29:37.873Z,93.12
2022-11-27T17:32:10.036Z,93.69
2022-11-27T17:34:38.853Z,93.39
2022-11-27T17:37:07.380Z,93.37
2022-11-27T17:39:35.858Z,93.39
2022-11-27T17:42:05.859Z,93.36
2022-11-27T17:44:39.003Z,93.11
2022-11-27T17:47:07.397Z,93.00
2022-11-27T17:49:36.070Z,92.67
2022-11-27T17:52:06.584Z,92.57
2022-11-27T17:54:35.755Z,92.93
2022-11-27T17:57:05.186Z,92.98
2022-11-27T17:59:33.718Z,92.96
2022-11-27T18:02:03.646Z,92.86
2022-11-27T18:04:32.414Z,92.93
2022-11-27T18:07:00.999Z,92.50
2022-11-27T18:09:30.703Z,93.02
2022-11-27T18:11:59.492Z,93.12
2022-11-27T18:14:29.933Z,93.02
2022-11-27T18:17:04.141Z,93.17
2022-11-27T18:19:34.113Z,93.11
2022-11-27T18:22:02.594Z,92.85
2022-11-27T18:24:31.618Z,93.21
2022-11-27T18:27:08.081Z,93.20
2022-11-27T18:29:38.759Z,93.13
2022-11-27T18:32:08.177Z,93.49
2022-11-27T18:34:38.274Z,93.73
2022-11-27T18:37:06.922Z,93.38
2022-11-27T18:39:36.325Z,93.22
2022-11-27T18:42:05.992Z,97.09
2022-11-27T18:44:39.584Z,93.09
2022-11-27T18:47:12.891Z,92.95
2022-11-27T18:49:43.924Z,92.71
2022-11-27T18:52:13.234Z,93.89
2022-11-27T18:54:42.184Z,92.37
2022-11-27T18:57:11.305Z,92.42
2022-11-27T18:59:41.364Z,92.06
2022-11-27T19:02:12.041Z,91.92
2022-11-27T19:04:43.622Z,91.99
2022-11-27T19:07:13.172Z,92.28
2022-11-27T19:09:42.086Z,92.20
2022-11-27T19:12:10.948Z,92.00
2022-11-27T19:14:40.276Z,91.86
2022-11-27T19:17:09.454Z,91.85
2022-11-27T19:19:54.848Z,91.49
2022-11-27T19:22:25.188Z,91.90
2022-11-27T19:24:54.906Z,91.53
2022-11-27T19:27:24.065Z,91.28
2022-11-27T19:29:52.520Z,91.13
2022-11-27T19:32:21.189Z,91.46
2022-11-27T19:34:51.592Z,91.51
2022-11-27T19:37:33.478Z,91.73
2022-11-27T19:40:06.489Z,91.38
2022-11-27T19:42:34.949Z,91.30
2022-11-27T19:45:07.250Z,91.54
2022-11-27T19:47:35.731Z,91.12
2022-11-27T19:50:04.339Z,91.33
2022-11-27T19:52:34.251Z,91.42
2022-11-27T19:55:04.194Z,91.37
2022-11-27T19:57:33.612Z,90.94
2022-11-27T20:00:02.044Z,91.37
2022-11-27T20:02:31.716Z,91.40
2022-11-27T20:05:00.263Z,91.50
2022-11-27T20:07:28.660Z,91.80
2022-11-27T20:09:57.384Z,91.84
2022-11-27T20:12:27.669Z,91.86
2022-11-27T20:14:57.656Z,91.51
2022-11-27T20:17:26.105Z,90.70
2022-11-27T20:19:54.515Z,91.14
2022-11-27T20:22:24.280Z,90.52
2022-11-27T20:25:17.657Z,90.37
2022-11-27T20:27:45.030Z,89.81
2022-11-27T20:30:14.213Z,89.55
2022-11-27T20:32:42.625Z,89.25
2022-11-27T20:35:11.438Z,89.69
2022-11-27T20:37:39.980Z,89.50
2022-11-27T20:40:10.756Z,89.25
2022-11-27T20:42:39.213Z,89.53
2022-11-27T20:45:10.866Z,89.53
2022-11-27T20:47:39.717Z,89.42
2022-11-27T20:50:09.643Z,88.90
2022-11-27T20:52:38.237Z,88.78
2022-11-27T20:55:08.375Z,88.46
2022-11-27T20:57:36.827Z,88.41
2022-11-27T21:00:07.791Z,88.54
2022-11-27T21:02:40.787Z,88.17
2022-11-27T21:05:10.671Z,87.95
2022-11-27T21:07:40.960Z,87.80
2022-11-27T21:10:16.138Z,88.13
2022-11-27T21:12:46.305Z,87.96
2022-11-27T21:15:14.868Z,87.53
2022-11-27T21:17:44.699Z,87.48
2022-11-27T21:20:15.073Z,87.29
2022-11-27T21:22:44.692Z,87.16
2022-11-27T21:25:13.443Z,86.99
2022-11-27T21:27:41.843Z,86.77
2022-11-27T21:30:11.279Z,86.57
2022-11-27T21:32:39.877Z,86.75
2022-11-27T21:35:10.313Z,86.71
2022-11-27T21:37:38.848Z,86.83
2022-11-27T21:40:09.324Z,86.66
2022-11-27T21:42:41.648Z,86.77
2022-11-27T21:45:13.003Z,86.31
2022-11-27T21:47:41.731Z,86.22
2022-11-27T21:50:13.737Z,86.56
2022-11-27T21:52:42.371Z,85.82
2022-11-27T21:55:12.303Z,86.10
2022-11-27T21:57:40.922Z,85.99
2022-11-27T22:00:10.782Z,85.82
2022-11-27T22:02:40.653Z,85.88
2022-11-27T22:05:11.179Z,86.09
2022-11-27T22:07:39.867Z,86.07
2022-11-27T22:10:10.574Z,86.16
2022-11-27T22:12:39.481Z,86.54
2022-11-27T22:15:09.312Z,86.50
2022-11-27T22:17:37.765Z,86.13
2022-11-27T22:20:08.331Z,86.35
2022-11-27T22:22:38.455Z,86.15
2022-11-27T22:25:07.712Z,85.96
2022-11-27T22:27:36.234Z,85.97
2022-11-27T22:30:05.766Z,86.00
2022-11-27T22:32:34.292Z,85.83
2022-11-27T22:35:03.027Z,86.02
2022-11-27T22:37:31.552Z,86.09
2022-11-27T22:40:01.415Z,86.26
2022-11-27T22:42:29.860Z,86.14
2022-11-27T22:44:58.251Z,86.19
2022-11-27T22:47:26.687Z,86.15
2022-11-27T22:49:55.176Z,86.04
2022-11-27T22:52:23.757Z,86.41
2022-11-27T22:54:52.255Z,86.20
2022-11-27T22:57:22.326Z,86.37
2022-11-27T22:59:50.851Z,86.37
2022-11-27T23:02:20.136Z,86.45
2022-11-27T23:04:48.606Z,86.88
2022-11-27T23:07:21.019Z,92.36
2022-11-27T23:09:52.233Z,93.93
2022-11-27T23:12:22.015Z,87.55
2022-11-27T23:14:50.561Z,85.07
2022-11-27T23:17:19.174Z,85.73
2022-11-27T23:19:47.580Z,86.13
2022-11-27T23:22:15.962Z,86.55
2022-11-27T23:24:44.554Z,86.74
2022-11-27T23:27:13.014Z,86.79
2022-11-27T23:29:42.697Z,86.73
2022-11-27T23:32:11.195Z,86.85
2022-11-27T23:34:39.866Z,86.93
2022-11-27T23:37:08.535Z,86.60
2022-11-27T23:39:37.209Z,87.13
2022-11-27T23:42:05.748Z,86.86
2022-11-27T23:44:34.184Z,87.22
2022-11-27T23:47:03.887Z,86.99
2022-11-27T23:49:32.264Z,87.29
2022-11-27T23:52:00.822Z,87.29
2022-11-27T23:54:29.255Z,86.88
2022-11-27T23:56:57.700Z,87.29
2022-11-27T23:59:26.074Z,86.58
